Aviation Digital Data Service (ADDS)

Output produced by METARs form (0310 UTC 03 July 2022)
found at http://www.aviationweather.gov/metar/data/
 
METAR text: EIDW 030300Z 27010KT 9999 FEW015 SCT035 11/09 Q1018 NOSIG
Conditions at: EIDW (DUBLIN AIRPORT , IE) observed 0300 UTC 03 July 2022
Temperature: 11.0°C (52°F)
Dewpoint: 9.0°C (48°F) [RH = 87%]
Pressure (altimeter): 30.06 inches Hg (1018.0 mb)
Winds: from the W (270 degrees) at 12 MPH (10 knots; 5.1 m/s)
Visibility: 6 or more miles (10+ km)
Ceiling: at least 12,000 feet AGL
Clouds: few clouds at 1500 feet AGL
scattered clouds at 3500 feet AGL
Weather: no significant weather observed at this time

Forecast for: AMD
Text: TAF AMD EIDW 030007Z 0300/0324 28010KT 9999 FEW015 SCT025
Forecast period: 0000 UTC 03 July 2022 to 0000 UTC 04 July 2022
Forecast type: FROM: standard forecast or significant change
Winds: from the W (280 degrees) at 12 MPH (10 knots; 5.1 m/s)
Visibility: 6 or more miles (10+ km)
Ceiling: at least 12,000 feet AGL
Clouds: few clouds at 1500 feet AGL
scattered clouds at 2500 feet AGL
Weather: no significant weather forecast for this period
Text: PROB30
Forecast period: 0000 UTC 03 July 2022 to 0000 UTC 04 July 2022
Forecast type: TEMPORARY: The following changes expected for less than half the time period
Winds: from the WNW (290 degrees) at 17 MPH (15 knots; 7.7 m/s)
Visibility: missing
Ceiling: unknown
Clouds: missing
Weather: no significant weather forecast for this period